Time;durP1;ratioP1;P1;durP2;ratioP2;P2;SDS_P1;SDS_P2;PMS_P1;PMS_P2;Temp;Humidity;BMP_temperature;BMP_pressure;BME280_temperature;BME280_humidity;BME280_pressure;Samples;Min_cycle;Max_cycle;Signal;HPM_P1;HPM_P2
2022/11/07 00:02:16;;;;;;;29.80;19.80;;;;;;;5.54;76.15;100645.41;100758;1285;138318;-68
2022/11/07 00:04:47;;;;;;;28.10;19.00;;;;;;;5.49;76.53;100637.50;100967;1285;97939;-68
2022/11/07 00:07:17;;;;;;;27.80;19.60;;;;;;;5.50;77.07;100634.69;100913;1278;108045;-68
2022/11/07 00:09:48;;;;;;;30.30;20.50;;;;;;;5.53;77.26;100630.09;100788;1285;138478;-68
2022/11/07 00:12:19;;;;;;;30.40;21.20;;;;;;;5.57;77.64;100630.96;100886;1288;94696;-68
2022/11/07 00:14:49;;;;;;;29.50;20.30;;;;;;;5.63;77.64;100623.02;100777;1277;138535;-68
2022/11/07 00:17:20;;;;;;;28.80;20.90;;;;;;;5.58;77.73;100626.39;100911;1284;98604;-68
2022/11/07 00:19:51;;;;;;;30.40;20.20;;;;;;;5.56;78.31;100617.93;100776;1285;138751;-68
2022/11/07 00:22:22;;;;;;;28.50;19.90;;;;;;;5.61;78.76;100613.52;100871;1285;94663;-67
2022/11/07 00:24:52;;;;;;;31.80;21.00;;;;;;;5.64;79.20;100605.59;100818;1283;94414;-68
2022/11/07 00:27:23;;;;;;;31.30;20.50;;;;;;;5.74;79.36;100605.91;100775;1285;138039;-67
2022/11/07 00:29:54;;;;;;;28.90;19.80;;;;;;;5.79;79.27;100601.15;100863;1277;97869;-68
2022/11/07 00:32:25;;;;;;;26.80;18.40;;;;;;;5.84;79.58;100595.83;100707;1279;138496;-67
2022/11/07 00:34:55;;;;;;;29.50;19.50;;;;;;;5.87;79.28;100589.13;100900;1285;94264;-67
2022/11/07 00:37:26;;;;;;;29.30;20.50;;;;;;;5.87;79.62;100592.48;101019;1284;94614;-67
2022/11/07 00:39:57;;;;;;;28.40;19.00;;;;;;;5.84;79.88;100581.55;100788;1284;138048;-68
2022/11/07 00:42:28;;;;;;;31.40;20.80;;;;;;;5.81;79.69;100580.68;100822;1284;97832;-67
2022/11/07 00:44:58;;;;;;;30.10;20.00;;;;;;;5.79;80.16;100574.54;101015;1285;138596;-67
2022/11/07 00:47:29;;;;;;;28.70;19.10;;;;;;;5.87;80.31;100567.09;100886;1285;95809;-67
2022/11/07 00:50:00;;;;;;;28.10;18.80;;;;;;;5.85;80.21;100562.88;100749;1277;138669;-67
2022/11/07 00:52:31;;;;;;;26.90;18.40;;;;;;;5.81;80.24;100558.49;100887;1284;109903;-67
2022/11/07 00:55:02;;;;;;;29.50;19.10;;;;;;;5.80;80.48;100559.02;100873;1285;98559;-68
2022/11/07 00:57:33;;;;;;;28.70;19.30;;;;;;;5.78;80.85;100555.52;100799;1284;137889;-68
2022/11/07 01:00:05;;;;;;;28.70;18.80;;;;;;;5.78;80.91;100555.68;100845;1283;94672;-67
2022/11/07 01:02:35;;;;;;;28.10;18.60;;;;;;;5.76;81.12;100553.40;100850;1284;139591;-67
2022/11/07 01:05:11;;;;;;;28.30;17.70;;;;;;;5.83;81.23;100551.77;100848;1285;107438;-67
2022/11/07 01:07:42;;;;;;;24.80;17.00;;;;;;;5.84;81.21;100553.02;100757;1302;139003;-68
2022/11/07 01:10:13;;;;;;;26.00;17.20;;;;;;;5.83;81.13;100554.59;100842;1285;107696;-68
2022/11/07 01:12:43;;;;;;;26.70;17.40;;;;;;;5.87;81.42;100556.35;100806;1285;94480;-67
2022/11/07 01:15:14;;;;;;;25.00;17.50;;;;;;;5.93;81.42;100558.61;100683;1284;138820;-69
2022/11/07 01:17:45;;;;;;;26.70;17.20;;;;;;;5.99;81.22;100559.32;101108;1285;108244;-68
2022/11/07 01:20:16;;;;;;;24.70;16.80;;;;;;;6.03;81.34;100559.30;100834;1277;138536;-67
2022/11/07 01:22:48;;;;;;;27.00;17.60;;;;;;;6.07;80.98;100559.98;100861;1285;106771;-68
2022/11/07 01:25:19;;;;;;;25.50;16.60;;;;;;;6.12;81.22;100562.43;100830;1284;94854;-69
2022/11/07 01:27:50;;;;;;;26.00;17.30;;;;;;;6.21;80.79;100557.96;100767;1285;138793;-67
2022/11/07 01:30:20;;;;;;;23.80;15.80;;;;;;;6.16;80.54;100556.77;100820;1285;107632;-68
2022/11/07 01:32:51;;;;;;;25.30;17.00;;;;;;;6.13;80.71;100553.61;100834;1285;138295;-69
2022/11/07 01:35:22;;;;;;;27.90;18.30;;;;;;;6.17;80.83;100554.46;100816;1278;108034;-68
2022/11/07 01:37:53;;;;;;;25.90;16.60;;;;;;;6.23;80.66;100551.96;100712;1285;138910;-67
2022/11/07 01:40:23;;;;;;;23.70;16.40;;;;;;;6.30;81.00;100550.68;100829;1284;94788;-67
2022/11/07 01:42:54;;;;;;;23.40;16.40;;;;;;;6.31;80.41;100548.57;100838;1285;107975;-67
2022/11/07 01:45:27;;;;;;;23.20;16.10;;;;;;;6.29;80.36;100546.63;100823;1285;138848;-69
2022/11/07 01:48:02;;;;;;;23.90;16.40;;;;;;;6.30;80.50;100545.57;100840;1277;108064;-70
2022/11/07 01:50:32;;;;;;;25.80;17.30;;;;;;;6.31;80.31;100544.87;100904;1283;139000;-70
2022/11/07 01:53:03;;;;;;;26.30;18.40;;;;;;;6.26;80.38;100539.42;100950;1285;94308;-69
2022/11/07 01:55:36;;;;;;;25.20;17.20;;;;;;;6.25;80.57;100539.45;101471;1293;105644;-68
2022/11/07 01:58:10;;;;;;;27.40;17.50;;;;;;;6.28;81.07;100539.23;101358;1291;98256;-68
2022/11/07 02:00:41;;;;;;;26.90;16.30;;;;;;;6.30;80.90;100540.27;101292;1285;107601;-68
2022/11/07 02:03:17;;;;;;;25.50;16.70;;;;;;;6.28;80.73;100538.19;101178;1293;139567;-68
2022/11/07 02:05:52;;;;;;;24.70;16.80;;;;;;;6.28;81.05;100539.23;101371;1285;94892;-68
2022/11/07 02:08:24;;;;;;;25.30;16.50;;;;;;;6.32;81.12;100530.92;101238;1277;138701;-69
2022/11/07 02:10:58;;;;;;;26.30;18.40;;;;;;;6.34;81.00;100527.56;101382;1285;98534;-69
2022/11/07 02:13:31;;;;;;;26.20;17.90;;;;;;;6.32;81.01;100521.06;101609;1285;108022;-67
2022/11/07 02:16:04;;;;;;;25.60;17.90;;;;;;;6.33;81.13;100518.04;100983;1285;138462;-67
2022/11/07 02:18:37;;;;;;;27.00;17.60;;;;;;;6.32;81.14;100510.48;100897;1285;94337;-68
2022/11/07 02:21:14;;;;;;;26.00;18.40;;;;;;;6.34;81.39;100507.28;100917;1284;139146;-68
2022/11/07 02:23:51;;;;;;;26.20;18.40;;;;;;;6.34;81.25;100506.92;101101;1283;98039;-68
2022/11/07 02:26:23;;;;;;;25.60;18.10;;;;;;;6.40;81.49;100501.23;101107;1279;138715;-68
2022/11/07 02:28:57;;;;;;;28.40;17.90;;;;;;;6.43;81.17;100496.45;100798;1284;94613;-68
2022/11/07 02:31:28;;;;;;;28.90;18.70;;;;;;;6.39;81.11;100486.61;100869;1285;95225;-69
2022/11/07 02:33:58;;;;;;;28.70;19.30;;;;;;;6.43;81.64;100474.77;100739;1285;138023;-68
2022/11/07 02:36:29;;;;;;;28.50;17.90;;;;;;;6.54;81.57;100470.43;100815;1277;98501;-68
2022/11/07 02:39:01;;;;;;;26.50;17.90;;;;;;;6.69;81.39;100461.85;100598;1284;176850;-67
2022/11/07 02:41:34;;;;;;;27.70;19.30;;;;;;;6.71;80.74;100451.59;100800;1277;94844;-68
2022/11/07 02:44:10;;;;;;;28.20;18.60;;;;;;;6.71;80.81;100457.05;100866;1277;138487;-68
2022/11/07 02:46:41;;;;;;;28.10;18.40;;;;;;;6.71;80.76;100458.47;100895;1285;107071;-68
2022/11/07 02:49:12;;;;;;;30.30;19.40;;;;;;;6.63;80.61;100453.61;101124;1284;98756;-67
2022/11/07 02:51:43;;;;;;;30.20;19.70;;;;;;;6.52;80.85;100446.81;100731;1284;138569;-67
2022/11/07 02:54:13;;;;;;;30.70;21.00;;;;;;;6.46;81.40;100445.09;100814;1283;95745;-67
2022/11/07 02:56:44;;;;;;;30.60;20.30;;;;;;;6.44;81.46;100443.91;100739;1285;138995;-67
2022/11/07 02:59:15;;;;;;;31.20;19.50;;;;;;;6.40;81.82;100442.17;100847;1285;108790;-68
2022/11/07 03:01:53;;;;;;;28.50;19.90;;;;;;;6.36;82.17;100436.73;100689;1278;138926;-68
2022/11/07 03:04:24;;;;;;;31.90;21.40;;;;;;;6.37;82.40;100439.90;100900;1283;108148;-67
2022/11/07 03:06:55;;;;;;;34.10;23.10;;;;;;;6.37;82.55;100436.89;100909;1285;94411;-67
2022/11/07 03:09:26;;;;;;;30.40;20.30;;;;;;;6.38;82.85;100434.42;100814;1280;138254;-67
2022/11/07 03:11:57;;;;;;;33.70;21.80;;;;;;;6.37;83.18;100426.84;100778;1283;107211;-67
2022/11/07 03:14:27;;;;;;;33.10;21.40;;;;;;;6.41;83.20;100422.77;101081;1294;138912;-67
2022/11/07 03:16:58;;;;;;;34.10;21.50;;;;;;;6.46;83.00;100418.83;100928;1301;107940;-69
2022/11/07 03:19:29;;;;;;;32.00;20.60;;;;;;;6.46;83.27;100418.11;100854;1284;94287;-68
2022/11/07 03:22:00;;;;;;;32.40;21.00;;;;;;;6.45;83.48;100414.80;100698;1291;138824;-67
2022/11/07 03:24:31;;;;;;;32.40;20.80;;;;;;;6.44;83.63;100414.45;100837;1291;107554;-67
2022/11/07 03:27:02;;;;;;;34.30;21.50;;;;;;;6.43;83.83;100409.68;100870;1285;142308;-68
2022/11/07 03:29:32;;;;;;;33.70;21.00;;;;;;;6.45;83.93;100405.79;100801;1277;107982;-68
2022/11/07 03:32:03;;;;;;;32.20;20.80;;;;;;;6.48;84.00;100408.59;100733;1307;139481;-68
2022/11/07 03:34:34;;;;;;;31.90;21.20;;;;;;;6.48;84.07;100408.74;100866;1285;95221;-68
2022/11/07 03:37:05;;;;;;;34.70;22.10;;;;;;;6.48;84.20;100414.77;100830;1284;107601;-68
2022/11/07 03:39:35;;;;;;;33.90;22.00;;;;;;;6.51;84.25;100415.44;100693;1277;138927;-68
2022/11/07 03:42:07;;;;;;;34.00;21.90;;;;;;;6.59;84.19;100417.29;100817;1300;108074;-67
2022/11/07 03:44:37;;;;;;;32.70;21.90;;;;;;;6.65;83.88;100418.13;100723;1293;139632;-68
2022/11/07 03:47:08;;;;;;;35.00;22.20;;;;;;;6.67;83.93;100415.63;100809;1284;95975;-67
2022/11/07 03:49:39;;;;;;;32.80;19.80;;;;;;;6.71;83.79;100413.83;100735;1284;138934;-68
2022/11/07 03:52:09;;;;;;;33.40;20.80;;;;;;;6.74;83.95;100413.44;101357;1285;98600;-70
2022/11/07 03:54:40;;;;;;;36.20;22.00;;;;;;;6.76;83.64;100413.77;100928;1293;108205;-70
2022/11/07 03:57:11;;;;;;;36.40;23.10;;;;;;;6.79;83.83;100409.67;100710;1284;139041;-70
2022/11/07 03:59:41;;;;;;;38.80;23.40;;;;;;;6.82;83.84;100406.84;100815;1284;94364;-69
2022/11/07 04:02:12;;;;;;;38.20;23.20;;;;;;;6.83;83.86;100407.70;100676;1278;138526;-69
2022/11/07 04:04:43;;;;;;;36.50;22.40;;;;;;;6.86;84.07;100402.91;100868;1283;98695;-70
2022/11/07 04:07:14;;;;;;;36.50;23.20;;;;;;;6.85;83.86;100401.68;100799;1284;108475;-69
2022/11/07 04:09:45;;;;;;;35.10;22.90;;;;;;;6.89;84.20;100403.05;100747;1284;138984;-70
2022/11/07 04:17:53;;;;;;;38.80;24.10;;;;;;;7.15;83.68;100409.09;100784;1278;99039;-69
2022/11/07 04:20:24;;;;;;;37.40;23.10;;;;;;;7.16;83.98;100405.55;100746;1285;138058;-71
2022/11/07 04:22:55;;;;;;;37.90;22.60;;;;;;;7.18;83.69;100400.59;100814;1284;94809;-71
2022/11/07 04:28:10;;;;;;;38.80;22.90;;;;;;;7.26;83.77;100405.44;100848;1285;107575;-71
2022/11/07 04:30:41;;;;;;;34.50;21.20;;;;;;;7.27;83.90;100402.08;100845;1285;97695;-69
2022/11/07 04:33:12;;;;;;;37.70;22.20;;;;;;;7.27;83.87;100399.23;100707;1285;138860;-69
2022/11/07 04:35:43;;;;;;;38.40;23.00;;;;;;;7.29;84.09;100396.04;100813;1285;94861;-70
2022/11/07 04:38:14;;;;;;;39.10;23.00;;;;;;;7.29;84.21;100392.88;100649;1284;139018;-70
2022/11/07 04:40:45;;;;;;;38.50;23.40;;;;;;;7.28;84.38;100394.64;100754;1278;107489;-70
2022/11/07 04:43:16;;;;;;;38.50;22.20;;;;;;;7.28;84.17;100396.42;100791;1285;98399;-70
2022/11/07 04:45:47;;;;;;;35.50;21.20;;;;;;;7.28;84.55;100391.45;100694;1291;139637;-70
2022/11/07 04:48:18;;;;;;;37.70;23.00;;;;;;;7.28;84.72;100387.92;100787;1287;94314;-69
2022/11/07 04:50:49;;;;;;;36.00;21.00;;;;;;;7.31;84.85;100380.66;100878;1309;138608;-69
2022/11/07 04:53:20;;;;;;;37.40;21.60;;;;;;;7.35;84.78;100377.23;100804;1285;106848;-69
2022/11/07 04:55:51;;;;;;;36.10;21.90;;;;;;;7.38;84.65;100379.50;100736;1284;139097;-70
2022/11/07 04:58:22;;;;;;;39.00;22.70;;;;;;;7.41;84.65;100375.21;100865;1282;107440;-70
2022/11/07 05:00:52;;;;;;;38.50;21.80;;;;;;;7.45;84.48;100361.73;100766;1283;94683;-70
2022/11/07 05:03:23;;;;;;;37.70;20.70;;;;;;;7.45;84.61;100359.45;100762;1284;139275;-70
2022/11/07 05:05:54;;;;;;;37.60;21.50;;;;;;;7.42;84.77;100360.19;100840;1283;107959;-70
2022/11/07 05:08:24;;;;;;;35.90;21.50;;;;;;;7.45;85.13;100360.32;100763;1284;138887;-70
2022/11/07 05:10:55;;;;;;;36.90;20.70;;;;;;;7.52;85.01;100362.17;100832;1285;108390;-69
2022/11/07 05:13:26;;;;;;;37.40;21.90;;;;;;;7.53;84.59;100355.80;100828;1283;95795;-70
2022/11/07 05:15:57;;;;;;;35.80;21.30;;;;;;;7.57;84.62;100354.14;100738;1285;139178;-70
2022/11/07 05:18:28;;;;;;;37.60;20.60;;;;;;;7.60;84.64;100352.89;100918;1283;106978;-70
2022/11/07 05:20:59;;;;;;;35.70;21.50;;;;;;;7.58;84.62;100349.36;100731;1291;138955;-69
2022/11/07 05:23:29;;;;;;;34.70;19.90;;;;;;;7.64;85.04;100357.58;100833;1283;108573;-70
2022/11/07 05:26:00;;;;;;;36.20;20.60;;;;;;;7.68;84.55;100347.98;100711;1283;139064;-71
2022/11/07 05:28:32;;;;;;;34.90;19.80;;;;;;;7.70;84.53;100351.12;100837;1285;94790;-70
2022/11/07 05:31:14;;;;;;;34.50;19.40;;;;;;;7.73;84.61;100350.90;101094;1284;106886;-70
2022/11/07 05:33:45;;;;;;;33.60;19.50;;;;;;;7.74;84.70;100344.53;100764;1283;139266;-71
2022/11/07 05:36:18;;;;;;;33.60;19.20;;;;;;;7.74;84.84;100344.52;100943;1284;108449;-70
2022/11/07 05:38:50;;;;;;;34.30;20.20;;;;;;;7.76;84.75;100347.68;100894;1284;138902;-70
2022/11/07 05:41:22;;;;;;;34.10;19.00;;;;;;;7.78;84.74;100341.98;101026;1284;94976;-71
2022/11/07 05:43:53;;;;;;;32.30;19.70;;;;;;;7.82;84.90;100340.52;100712;1285;139229;-70
2022/11/07 05:46:23;;;;;;;33.00;19.50;;;;;;;7.85;84.78;100338.52;100848;1283;98604;-71
2022/11/07 05:48:54;;;;;;;32.80;18.80;;;;;;;7.89;84.70;100340.41;100801;1285;107680;-70
2022/11/07 05:51:30;;;;;;;34.10;19.20;;;;;;;7.91;84.78;100328.34;100780;1284;138997;-71
2022/11/07 05:54:01;;;;;;;33.50;19.20;;;;;;;7.95;84.98;100332.88;100971;1306;94859;-70
2022/11/07 05:56:32;;;;;;;35.30;20.20;;;;;;;8.01;84.81;100344.63;100748;1291;139645;-72
2022/11/07 05:59:03;;;;;;;31.50;19.80;;;;;;;8.03;84.93;100342.46;100896;1291;98251;-71
2022/11/07 06:01:34;;;;;;;31.30;17.50;;;;;;;8.05;84.54;100348.45;100899;1288;106992;-70
2022/11/07 06:04:06;;;;;;;30.50;18.30;;;;;;;8.06;84.85;100350.21;100711;1285;138480;-70
2022/11/07 06:06:37;;;;;;;31.00;17.80;;;;;;;8.08;84.64;100348.21;101034;1284;94242;-66
2022/11/07 06:09:08;;;;;;;31.20;18.00;;;;;;;8.14;84.85;100347.59;100745;1287;139418;-71
2022/11/07 06:11:39;;;;;;;32.70;19.40;;;;;;;8.21;84.92;100356.13;101289;1284;98558;-71
2022/11/07 06:14:09;;;;;;;30.30;18.30;;;;;;;8.27;84.64;100357.27;101221;1291;138435;-69
2022/11/07 06:16:40;;;;;;;30.60;18.80;;;;;;;8.29;84.38;100358.99;101322;1307;95082;-71
2022/11/07 06:19:11;;;;;;;31.50;18.90;;;;;;;8.33;84.56;100360.70;101350;1283;94344;-71
2022/11/07 06:21:41;;;;;;;29.80;17.90;;;;;;;8.34;84.70;100360.84;101256;1283;139239;-71
2022/11/07 06:24:12;;;;;;;30.90;19.10;;;;;;;8.39;84.54;100361.13;101355;1283;97605;-71
2022/11/07 06:26:45;;;;;;;29.80;18.40;;;;;;;8.43;84.39;100360.00;101223;1285;138841;-72
2022/11/07 06:29:15;;;;;;;28.60;18.00;;;;;;;8.45;84.31;100357.15;101292;1284;94368;-70
2022/11/07 06:31:46;;;;;;;30.90;18.90;;;;;;;8.51;84.34;100372.26;101245;1283;138727;-71
2022/11/07 06:34:17;;;;;;;30.70;18.40;;;;;;;8.58;84.23;100370.38;101330;1285;107613;-71
2022/11/07 06:36:51;;;;;;;28.40;17.30;;;;;;;8.62;84.21;100372.77;101292;1279;99222;-71
2022/11/07 06:39:32;;;;;;;27.60;17.40;;;;;;;8.64;83.89;100367.08;101212;1284;138764;-71
2022/11/07 06:42:02;;;;;;;29.50;17.60;;;;;;;8.63;83.90;100361.09;101248;1284;95904;-71
2022/11/07 06:44:33;;;;;;;29.30;17.90;;;;;;;8.65;84.20;100364.93;101213;1284;139483;-70
2022/11/07 06:47:04;;;;;;;27.90;18.30;;;;;;;8.68;84.11;100365.05;101380;1286;106657;-72
2022/11/07 06:49:35;;;;;;;30.10;19.30;;;;;;;8.71;84.04;100362.16;101244;1285;98490;-71
2022/11/07 06:52:06;;;;;;;29.00;17.40;;;;;;;8.72;83.96;100361.25;101195;1278;138878;-71
2022/11/07 06:54:37;;;;;;;27.30;17.80;;;;;;;8.72;83.97;100363.39;101197;1285;94832;-71
2022/11/07 06:57:08;;;;;;;29.20;18.30;;;;;;;8.78;84.17;100361.15;101110;1283;139074;-72
2022/11/07 06:59:38;;;;;;;29.00;18.10;;;;;;;8.81;83.86;100357.02;101297;1280;107021;-72
2022/11/07 07:02:13;;;;;;;30.30;18.30;;;;;;;8.85;83.92;100364.91;101197;1287;138588;-72
2022/11/07 07:05:04;;;;;;;27.30;17.40;;;;;;;8.91;83.99;100366.02;101475;1284;107371;-73
2022/11/07 07:07:34;;;;;;;26.30;16.30;;;;;;;8.95;83.91;100370.02;101454;1277;95107;-70
2022/11/07 07:10:07;;;;;;;27.60;17.20;;;;;;;8.97;83.82;100372.98;100745;1285;138332;-72
2022/11/07 07:12:38;;;;;;;28.00;17.70;;;;;;;9.00;83.56;100366.89;100945;1292;107118;-71
2022/11/07 07:15:10;;;;;;;26.30;17.30;;;;;;;9.07;83.85;100367.48;100729;1285;139154;-71
2022/11/07 07:17:41;;;;;;;28.10;17.90;;;;;;;9.18;83.44;100367.25;100934;1285;107328;-70
2022/11/07 07:20:13;;;;;;;26.80;16.40;;;;;;;9.19;83.19;100364.20;100752;1285;138515;-71
2022/11/07 07:22:45;;;;;;;28.10;18.10;;;;;;;9.15;83.18;100362.16;100871;1285;95373;-70
2022/11/07 07:25:23;;;;;;;27.30;17.20;;;;;;;9.16;83.59;100364.63;100681;1277;107922;-69
2022/11/07 07:27:53;;;;;;;27.60;17.40;;;;;;;9.20;83.40;100360.46;100717;1285;138692;-70
2022/11/07 07:30:24;;;;;;;26.40;16.90;;;;;;;9.24;83.20;100361.11;100811;1284;108007;-70
2022/11/07 07:32:55;;;;;;;24.40;15.70;;;;;;;9.28;83.51;100365.25;100670;1284;139480;-70
2022/11/07 07:35:26;;;;;;;27.20;17.60;;;;;;;9.32;83.28;100363.94;100824;1278;94602;-70
2022/11/07 07:37:56;;;;;;;26.60;16.70;;;;;;;9.35;83.41;100361.74;100755;1285;138076;-71
2022/11/07 07:40:27;;;;;;;28.50;17.90;;;;;;;9.34;83.14;100360.32;100872;1285;98684;-71
2022/11/07 07:42:58;;;;;;;26.60;16.90;;;;;;;9.34;83.40;100359.27;100959;1283;107870;-70
2022/11/07 07:45:29;;;;;;;24.10;15.50;;;;;;;9.42;83.43;100352.39;100747;1285;138744;-69
2022/11/07 07:48:02;;;;;;;24.40;15.50;;;;;;;9.46;83.18;100355.84;100846;1285;94786;-70
2022/11/07 07:50:33;;;;;;;23.20;15.20;;;;;;;9.47;83.16;100350.11;100847;1285;139203;-70
2022/11/07 07:53:03;;;;;;;22.70;14.90;;;;;;;9.52;83.22;100351.42;100827;1283;98473;-71
2022/11/07 07:55:38;;;;;;;25.10;16.20;;;;;;;9.55;83.06;100349.77;100892;1293;107275;-72
2022/11/07 07:58:10;;;;;;;25.10;15.90;;;;;;;9.59;83.12;100349.70;100902;1287;94705;-70
2022/11/07 08:00:41;;;;;;;24.40;15.90;;;;;;;9.65;83.21;100352.73;100919;1284;94825;-70
2022/11/07 08:03:13;;;;;;;26.20;16.30;;;;;;;9.73;82.74;100352.73;100873;1285;138769;-70
2022/11/07 08:05:45;;;;;;;22.50;15.10;;;;;;;9.74;82.63;100349.51;100720;1278;98245;-70
2022/11/07 08:08:15;;;;;;;24.10;15.80;;;;;;;9.78;82.55;100347.66;100686;1282;139186;-68
2022/11/07 08:10:52;;;;;;;26.50;16.80;;;;;;;9.85;82.49;100353.33;100701;1284;94805;-67
2022/11/07 08:13:25;;;;;;;27.50;17.00;;;;;;;9.90;82.17;100348.77;100815;1277;94329;-67
2022/11/07 08:15:56;;;;;;;26.60;17.50;;;;;;;9.91;82.08;100348.59;100867;1285;138238;-67
2022/11/07 08:18:28;;;;;;;28.30;17.70;;;;;;;9.91;82.09;100350.71;100687;1285;97959;-67
2022/11/07 08:20:59;;;;;;;24.60;15.70;;;;;;;9.93;82.19;100347.45;100678;1285;138671;-67
2022/11/07 08:23:30;;;;;;;24.00;15.60;;;;;;;9.97;81.92;100345.40;100704;1285;94743;-67
2022/11/07 08:26:03;;;;;;;22.70;15.10;;;;;;;10.02;81.88;100346.35;100593;1285;138841;-69
2022/11/07 08:28:36;;;;;;;22.90;15.30;;;;;;;10.06;81.58;100346.80;100831;1292;107477;-68
2022/11/07 08:31:10;;;;;;;23.50;15.00;;;;;;;10.08;81.61;100343.56;100751;1285;98586;-67
2022/11/07 08:33:41;;;;;;;25.80;15.50;;;;;;;10.13;81.48;100338.80;100763;1285;139013;-68
2022/11/07 08:36:12;;;;;;;23.50;16.20;;;;;;;10.21;81.67;100340.20;100815;1283;94390;-69
2022/11/07 08:38:43;;;;;;;24.10;16.30;;;;;;;10.32;81.54;100338.13;100756;1285;138933;-68
2022/11/07 08:41:14;;;;;;;24.80;15.80;;;;;;;10.44;81.07;100338.38;100807;1284;106030;-68
2022/11/07 08:43:51;;;;;;;23.60;15.00;;;;;;;10.54;80.88;100339.19;100750;1285;139013;-68
2022/11/07 08:46:22;;;;;;;23.40;15.00;;;;;;;10.59;80.42;100341.20;100870;1285;107391;-68
2022/11/07 08:48:53;;;;;;;23.30;15.20;;;;;;;10.62;80.37;100336.49;100815;1279;94293;-69
2022/11/07 08:51:23;;;;;;;22.20;14.60;;;;;;;10.69;80.39;100334.17;101265;1300;138696;-68
2022/11/07 08:53:54;;;;;;;23.60;14.10;;;;;;;10.78;80.26;100338.19;100794;1285;107664;-67
2022/11/07 08:56:25;;;;;;;24.50;15.10;;;;;;;10.87;80.21;100336.14;100738;1278;139097;-68
2022/11/07 08:58:55;;;;;;;23.90;15.00;;;;;;;10.94;79.61;100332.92;100828;1301;108660;-67
2022/11/07 09:01:26;;;;;;;21.80;14.70;;;;;;;11.04;79.34;100333.17;100833;1287;94713;-68
2022/11/07 09:03:57;;;;;;;21.70;14.40;;;;;;;11.35;78.72;100328.35;100838;1309;138825;-67
2022/11/07 09:06:28;;;;;;;21.80;13.90;;;;;;;11.73;77.78;100326.44;100800;1284;107450;-67
2022/11/07 09:08:59;;;;;;;20.80;14.50;;;;;;;12.14;76.29;100321.04;100740;1283;138685;-68
2022/11/07 09:11:30;;;;;;;21.60;13.90;;;;;;;13.00;74.91;100319.91;100847;1285;108132;-67
2022/11/07 09:14:00;;;;;;;23.40;14.90;;;;;;;13.89;72.76;100318.59;100737;1284;139474;-67
2022/11/07 09:16:31;;;;;;;19.30;13.10;;;;;;;14.21;70.58;100312.80;100892;1301;94350;-67
2022/11/07 09:19:02;;;;;;;18.40;12.80;;;;;;;14.61;68.63;100314.48;100814;1277;107570;-68
2022/11/07 09:21:32;;;;;;;21.10;13.50;;;;;;;14.49;68.37;100311.79;101091;1284;138224;-67
2022/11/07 09:24:04;;;;;;;19.20;13.20;;;;;;;14.27;68.39;100310.75;100865;1283;106579;-67
2022/11/07 09:26:35;;;;;;;18.60;12.00;;;;;;;14.03;69.42;100310.02;100739;1285;138507;-67
2022/11/07 09:29:06;;;;;;;18.70;12.10;;;;;;;13.79;69.37;100309.55;100830;1285;94592;-68
2022/11/07 09:31:37;;;;;;;16.10;11.30;;;;;;;13.51;69.77;100311.05;100857;1285;107617;-67
2022/11/07 09:34:07;;;;;;;17.50;11.20;;;;;;;13.24;70.12;100309.02;100749;1283;138035;-68
2022/11/07 09:36:38;;;;;;;18.10;11.20;;;;;;;13.09;70.98;100308.73;101268;1285;107297;-68
2022/11/07 09:39:09;;;;;;;16.40;11.10;;;;;;;13.04;71.55;100308.38;100768;1285;138920;-66
2022/11/07 09:41:51;;;;;;;16.80;11.20;;;;;;;12.91;71.49;100309.05;100865;1307;95417;-68
2022/11/07 09:44:35;;;;;;;16.40;10.60;;;;;;;12.76;71.48;100303.55;100843;1277;138476;-68
2022/11/07 09:47:18;;;;;;;16.90;10.40;;;;;;;12.65;71.87;100306.60;100911;1277;98506;-68
2022/11/07 09:49:51;;;;;;;17.60;10.10;;;;;;;12.60;71.62;100300.74;100957;1285;138711;-66
2022/11/07 09:52:28;;;;;;;14.30;9.00;;;;;;;12.57;70.96;100298.00;101040;1285;94812;-67
2022/11/07 09:55:04;;;;;;;15.70;9.90;;;;;;;12.49;70.82;100299.18;100888;1285;95645;-68
2022/11/07 09:57:37;;;;;;;15.90;9.90;;;;;;;12.45;70.90;100293.59;100843;1285;138348;-68
2022/11/07 10:00:15;;;;;;;16.30;10.00;;;;;;;12.47;71.60;100286.77;100969;1283;98121;-68
2022/11/07 10:02:48;;;;;;;15.10;9.60;;;;;;;12.46;70.48;100287.14;100745;1285;138877;-68
2022/11/07 10:05:30;;;;;;;16.10;9.90;;;;;;;12.42;70.48;100280.52;101196;1285;94664;-68
2022/11/07 10:08:06;;;;;;;14.70;9.80;;;;;;;12.43;70.49;100287.27;100753;1285;138293;-67
2022/11/07 10:10:44;;;;;;;16.90;9.50;;;;;;;12.44;70.25;100281.17;100930;1284;106993;-69
2022/11/07 10:13:40;;;;;;;15.90;9.20;;;;;;;12.44;70.04;100280.13;100935;1283;98082;-67
2022/11/07 10:16:20;;;;;;;14.90;9.30;;;;;;;12.48;70.45;100275.70;100993;1284;108290;-67
2022/11/07 10:19:05;;;;;;;14.80;9.50;;;;;;;12.49;70.03;100278.33;100878;1278;94595;-67
2022/11/07 10:21:45;;;;;;;15.80;9.70;;;;;;;12.46;69.56;100278.27;100744;1280;137763;-68
2022/11/07 10:24:29;;;;;;;15.90;9.60;;;;;;;12.38;69.29;100277.49;100867;1277;109800;-68
2022/11/07 10:27:01;;;;;;;17.20;9.90;;;;;;;12.37;69.65;100276.79;101180;1277;139093;-67
2022/11/07 10:29:41;;;;;;;16.50;9.70;;;;;;;12.39;69.76;100279.23;100848;1285;107920;-67
2022/11/07 10:32:22;;;;;;;15.80;10.00;;;;;;;12.41;69.93;100279.52;100760;1277;138460;-68
2022/11/07 10:35:14;;;;;;;14.90;9.30;;;;;;;12.37;69.78;100275.38;100935;1295;94566;-67
2022/11/07 10:37:52;;;;;;;14.50;8.90;;;;;;;12.37;69.92;100276.09;100689;1285;138794;-69
2022/11/07 10:40:27;;;;;;;15.00;9.30;;;;;;;12.38;68.66;100277.65;100798;1277;97681;-67
2022/11/07 10:42:58;;;;;;;14.10;9.50;;;;;;;12.35;68.60;100277.20;100854;1277;108097;-67
2022/11/07 10:45:30;;;;;;;15.70;9.40;;;;;;;12.33;68.13;100275.16;100744;1277;138256;-67
2022/11/07 10:48:03;;;;;;;16.30;9.40;;;;;;;12.31;67.84;100273.29;100965;1285;94703;-68
2022/11/07 10:50:33;;;;;;;16.80;8.90;;;;;;;12.30;67.75;100268.85;100823;1303;139542;-68
2022/11/07 10:53:08;;;;;;;16.10;9.40;;;;;;;12.30;67.19;100269.58;100885;1285;98534;-67
2022/11/07 10:55:46;;;;;;;15.20;9.00;;;;;;;12.26;67.28;100262.42;100900;1285;107690;-69
2022/11/07 10:58:21;;;;;;;15.80;9.80;;;;;;;12.25;66.79;100256.95;101416;1302;94331;-67
2022/11/07 11:01:04;;;;;;;15.10;9.30;;;;;;;12.20;66.90;100257.44;100893;1285;94865;-67
2022/11/07 11:03:41;;;;;;;15.50;9.10;;;;;;;12.19;67.08;100254.61;101100;1303;138774;-69
2022/11/07 11:06:24;;;;;;;14.30;8.70;;;;;;;12.21;67.17;100258.66;100815;1283;98444;-69
2022/11/07 11:08:55;;;;;;;13.90;9.20;;;;;;;12.23;66.86;100261.98;100700;1284;137796;-67
2022/11/07 11:11:36;;;;;;;15.80;9.30;;;;;;;12.23;67.62;100266.09;100808;1284;95707;-67
2022/11/07 11:14:11;;;;;;;14.90;9.00;;;;;;;12.26;67.54;100263.83;101118;1307;138646;-67
2022/11/07 11:16:43;;;;;;;14.70;8.90;;;;;;;12.28;67.30;100270.70;100898;1278;107576;-67
2022/11/07 11:19:24;;;;;;;15.60;9.50;;;;;;;12.30;67.37;100266.17;101076;1285;98208;-69
2022/11/07 11:21:57;;;;;;;14.20;8.40;;;;;;;12.33;67.21;100267.34;100806;1284;139136;-68
2022/11/07 11:24:37;;;;;;;14.80;8.60;;;;;;;12.33;66.01;100268.39;100802;1284;95928;-68
2022/11/07 11:27:13;;;;;;;15.90;8.70;;;;;;;12.26;65.56;100268.29;100832;1285;138969;-68
2022/11/07 11:29:53;;;;;;;13.70;7.70;;;;;;;12.21;65.28;100273.44;101081;1285;107678;-68
2022/11/07 11:32:28;;;;;;;13.20;8.20;;;;;;;12.18;65.69;100273.18;100795;1285;138742;-68
2022/11/07 11:35:08;;;;;;;14.00;8.70;;;;;;;12.26;66.26;100274.35;100975;1285;107991;-66
2022/11/07 11:37:43;;;;;;;14.90;8.90;;;;;;;12.33;65.79;100280.33;100788;1277;94328;-68